sensor_id;sensor_type;location;lat;lon;timestamp;P1;durP1;ratioP1;P2;durP2;ratioP2
56373;SDS011;58212;47.034;7.376;2024-03-02T00:01:14;5.38;;;2.97;;
56373;SDS011;58212;47.034;7.376;2024-03-02T00:03:42;3.10;;;2.65;;
56373;SDS011;58212;47.034;7.376;2024-03-02T00:06:10;3.83;;;2.92;;
56373;SDS011;58212;47.034;7.376;2024-03-02T00:08:37;4.05;;;2.92;;
56373;SDS011;58212;47.034;7.376;2024-03-02T00:11:04;4.05;;;2.90;;
56373;SDS011;58212;47.034;7.376;2024-03-02T00:13:31;4.90;;;3.03;;
56373;SDS011;58212;47.034;7.376;2024-03-02T00:15:59;3.85;;;2.83;;
56373;SDS011;58212;47.034;7.376;2024-03-02T00:18:26;3.72;;;3.42;;
56373;SDS011;58212;47.034;7.376;2024-03-02T00:20:56;3.30;;;3.00;;
56373;SDS011;58212;47.034;7.376;2024-03-02T00:23:27;4.00;;;3.10;;
56373;SDS011;58212;47.034;7.376;2024-03-02T00:25:56;3.45;;;3.10;;
56373;SDS011;58212;47.034;7.376;2024-03-02T00:28:23;3.50;;;3.15;;
56373;SDS011;58212;47.034;7.376;2024-03-02T00:30:55;3.33;;;3.03;;
56373;SDS011;58212;47.034;7.376;2024-03-02T00:33:24;4.07;;;3.67;;
56373;SDS011;58212;47.034;7.376;2024-03-02T00:35:54;3.97;;;3.28;;
56373;SDS011;58212;47.034;7.376;2024-03-02T00:38:19;3.72;;;3.42;;
56373;SDS011;58212;47.034;7.376;2024-03-02T00:40:48;3.22;;;2.92;;
56373;SDS011;58212;47.034;7.376;2024-03-02T00:46:12;4.47;;;3.30;;
56373;SDS011;58212;47.034;7.376;2024-03-02T00:48:44;3.70;;;3.40;;
56373;SDS011;58212;47.034;7.376;2024-03-02T00:51:17;3.60;;;3.30;;
56373;SDS011;58212;47.034;7.376;2024-03-02T00:53:43;5.30;;;3.63;;
56373;SDS011;58212;47.034;7.376;2024-03-02T00:56:12;5.00;;;3.45;;
56373;SDS011;58212;47.034;7.376;2024-03-02T00:58:39;4.03;;;3.10;;
56373;SDS011;58212;47.034;7.376;2024-03-02T01:01:06;3.55;;;3.25;;
56373;SDS011;58212;47.034;7.376;2024-03-02T01:03:33;3.55;;;3.25;;
56373;SDS011;58212;47.034;7.376;2024-03-02T01:06:00;4.82;;;3.70;;
56373;SDS011;58212;47.034;7.376;2024-03-02T01:08:27;4.32;;;3.90;;
56373;SDS011;58212;47.034;7.376;2024-03-02T01:10:54;6.97;;;4.32;;
56373;SDS011;58212;47.034;7.376;2024-03-02T01:13:23;5.47;;;3.80;;
56373;SDS011;58212;47.034;7.376;2024-03-02T01:15:49;4.03;;;3.30;;
56373;SDS011;58212;47.034;7.376;2024-03-02T01:18:16;4.35;;;3.95;;
56373;SDS011;58212;47.034;7.376;2024-03-02T01:20:43;3.88;;;3.38;;
56373;SDS011;58212;47.034;7.376;2024-03-02T01:23:10;4.90;;;3.88;;
56373;SDS011;58212;47.034;7.376;2024-03-02T01:25:37;4.00;;;3.65;;
56373;SDS011;58212;47.034;7.376;2024-03-02T01:28:04;3.95;;;3.55;;
56373;SDS011;58212;47.034;7.376;2024-03-02T01:30:33;4.03;;;3.53;;
56373;SDS011;58212;47.034;7.376;2024-03-02T01:33:00;4.28;;;3.70;;
56373;SDS011;58212;47.034;7.376;2024-03-02T01:35:27;4.93;;;3.75;;
56373;SDS011;58212;47.034;7.376;2024-03-02T01:37:54;4.43;;;3.72;;
56373;SDS011;58212;47.034;7.376;2024-03-02T01:40:21;5.35;;;4.00;;
56373;SDS011;58212;47.034;7.376;2024-03-02T01:42:51;5.78;;;4.70;;
56373;SDS011;58212;47.034;7.376;2024-03-02T01:45:18;4.13;;;3.70;;
56373;SDS011;58212;47.034;7.376;2024-03-02T01:47:46;4.07;;;3.67;;
56373;SDS011;58212;47.034;7.376;2024-03-02T01:50:13;4.15;;;3.45;;
56373;SDS011;58212;47.034;7.376;2024-03-02T01:52:40;3.97;;;3.55;;
56373;SDS011;58212;47.034;7.376;2024-03-02T01:55:07;4.15;;;3.40;;
56373;SDS011;58212;47.034;7.376;2024-03-02T01:57:37;3.72;;;3.40;;
56373;SDS011;58212;47.034;7.376;2024-03-02T02:00:05;4.53;;;3.72;;
56373;SDS011;58212;47.034;7.376;2024-03-02T02:02:38;3.55;;;3.13;;
56373;SDS011;58212;47.034;7.376;2024-03-02T02:05:06;5.75;;;3.83;;
56373;SDS011;58212;47.034;7.376;2024-03-02T02:07:34;3.42;;;3.10;;
56373;SDS011;58212;47.034;7.376;2024-03-02T02:10:01;3.45;;;3.10;;
56373;SDS011;58212;47.034;7.376;2024-03-02T02:12:28;4.53;;;3.10;;
56373;SDS011;58212;47.034;7.376;2024-03-02T02:14:55;3.78;;;3.40;;
56373;SDS011;58212;47.034;7.376;2024-03-02T02:17:22;3.13;;;2.83;;
56373;SDS011;58212;47.034;7.376;2024-03-02T02:19:49;4.47;;;3.47;;
56373;SDS011;58212;47.034;7.376;2024-03-02T02:22:17;3.88;;;3.47;;
56373;SDS011;58212;47.034;7.376;2024-03-02T02:24:44;3.95;;;3.53;;
56373;SDS011;58212;47.034;7.376;2024-03-02T02:27:11;4.78;;;3.65;;
56373;SDS011;58212;47.034;7.376;2024-03-02T02:29:39;4.80;;;3.58;;
56373;SDS011;58212;47.034;7.376;2024-03-02T02:32:06;4.07;;;3.67;;
56373;SDS011;58212;47.034;7.376;2024-03-02T02:34:33;4.80;;;4.30;;
56373;SDS011;58212;47.034;7.376;2024-03-02T02:37:00;5.03;;;3.63;;
56373;SDS011;58212;47.034;7.376;2024-03-02T02:39:29;4.50;;;3.85;;
56373;SDS011;58212;47.034;7.376;2024-03-02T02:41:55;4.57;;;4.13;;
56373;SDS011;58212;47.034;7.376;2024-03-02T02:44:22;4.82;;;4.25;;
56373;SDS011;58212;47.034;7.376;2024-03-02T02:46:49;5.00;;;4.50;;
56373;SDS011;58212;47.034;7.376;2024-03-02T02:49:16;6.35;;;5.70;;
56373;SDS011;58212;47.034;7.376;2024-03-02T02:51:43;4.78;;;4.35;;
56373;SDS011;58212;47.034;7.376;2024-03-02T02:54:10;5.90;;;5.30;;
56373;SDS011;58212;47.034;7.376;2024-03-02T02:56:38;6.43;;;5.22;;
56373;SDS011;58212;47.034;7.376;2024-03-02T02:59:05;5.53;;;5.00;;
56373;SDS011;58212;47.034;7.376;2024-03-02T03:01:31;5.82;;;4.82;;
56373;SDS011;58212;47.034;7.376;2024-03-02T03:03:58;5.45;;;4.93;;
56373;SDS011;58212;47.034;7.376;2024-03-02T03:06:25;5.57;;;5.07;;
56373;SDS011;58212;47.034;7.376;2024-03-02T03:08:52;4.90;;;4.28;;
56373;SDS011;58212;47.034;7.376;2024-03-02T03:11:19;5.00;;;4.60;;
56373;SDS011;58212;47.034;7.376;2024-03-02T03:13:49;5.35;;;4.95;;
56373;SDS011;58212;47.034;7.376;2024-03-02T03:16:16;6.20;;;4.70;;
56373;SDS011;58212;47.034;7.376;2024-03-02T03:18:42;6.30;;;4.88;;
56373;SDS011;58212;47.034;7.376;2024-03-02T03:21:10;5.20;;;4.80;;
56373;SDS011;58212;47.034;7.376;2024-03-02T03:23:36;5.07;;;4.57;;
56373;SDS011;58212;47.034;7.376;2024-03-02T03:26:03;5.10;;;4.60;;
56373;SDS011;58212;47.034;7.376;2024-03-02T03:28:30;4.95;;;4.35;;
56373;SDS011;58212;47.034;7.376;2024-03-02T03:30:59;5.57;;;5.07;;
56373;SDS011;58212;47.034;7.376;2024-03-02T03:33:26;5.97;;;4.72;;
56373;SDS011;58212;47.034;7.376;2024-03-02T03:35:54;4.85;;;4.38;;
56373;SDS011;58212;47.034;7.376;2024-03-02T03:38:20;4.60;;;4.20;;
56373;SDS011;58212;47.034;7.376;2024-03-02T03:40:47;4.30;;;3.90;;
56373;SDS011;58212;47.034;7.376;2024-03-02T03:43:14;5.32;;;4.10;;
56373;SDS011;58212;47.034;7.376;2024-03-02T03:45:41;4.68;;;4.28;;
56373;SDS011;58212;47.034;7.376;2024-03-02T03:48:09;4.72;;;3.90;;
56373;SDS011;58212;47.034;7.376;2024-03-02T03:50:36;4.72;;;4.25;;
56373;SDS011;58212;47.034;7.376;2024-03-02T03:53:03;5.00;;;4.22;;
56373;SDS011;58212;47.034;7.376;2024-03-02T03:55:30;4.75;;;4.20;;
56373;SDS011;58212;47.034;7.376;2024-03-02T03:57:57;4.93;;;4.28;;
56373;SDS011;58212;47.034;7.376;2024-03-02T04:00:24;4.70;;;4.00;;
56373;SDS011;58212;47.034;7.376;2024-03-02T04:02:51;4.32;;;3.92;;
56373;SDS011;58212;47.034;7.376;2024-03-02T04:05:19;4.95;;;4.18;;
56373;SDS011;58212;47.034;7.376;2024-03-02T04:07:46;4.60;;;4.13;;
56373;SDS011;58212;47.034;7.376;2024-03-02T04:10:12;4.40;;;4.00;;
56373;SDS011;58212;47.034;7.376;2024-03-02T04:12:40;4.80;;;4.30;;
56373;SDS011;58212;47.034;7.376;2024-03-02T04:15:06;4.57;;;4.05;;
56373;SDS011;58212;47.034;7.376;2024-03-02T04:17:34;4.68;;;4.28;;
56373;SDS011;58212;47.034;7.376;2024-03-02T04:20:01;4.47;;;4.07;;
56373;SDS011;58212;47.034;7.376;2024-03-02T04:22:32;4.72;;;4.00;;
56373;SDS011;58212;47.034;7.376;2024-03-02T04:24:59;4.45;;;4.05;;
56373;SDS011;58212;47.034;7.376;2024-03-02T04:27:26;3.63;;;3.33;;
56373;SDS011;58212;47.034;7.376;2024-03-02T04:29:52;4.20;;;3.80;;
56373;SDS011;58212;47.034;7.376;2024-03-02T04:32:19;4.60;;;4.15;;
56373;SDS011;58212;47.034;7.376;2024-03-02T04:34:46;4.40;;;4.00;;
56373;SDS011;58212;47.034;7.376;2024-03-02T04:37:12;4.10;;;3.72;;
56373;SDS011;58212;47.034;7.376;2024-03-02T04:39:41;4.30;;;3.90;;
56373;SDS011;58212;47.034;7.376;2024-03-02T04:42:08;5.13;;;4.25;;
56373;SDS011;58212;47.034;7.376;2024-03-02T04:44:34;4.20;;;3.80;;
56373;SDS011;58212;47.034;7.376;2024-03-02T04:47:02;4.07;;;3.67;;
56373;SDS011;58212;47.034;7.376;2024-03-02T04:49:29;4.40;;;4.00;;
56373;SDS011;58212;47.034;7.376;2024-03-02T04:51:55;3.40;;;3.10;;
56373;SDS011;58212;47.034;7.376;2024-03-02T04:54:22;3.67;;;3.38;;
56373;SDS011;58212;47.034;7.376;2024-03-02T04:56:51;4.07;;;3.78;;
56373;SDS011;58212;47.034;7.376;2024-03-02T04:59:17;4.53;;;4.13;;
56373;SDS011;58212;47.034;7.376;2024-03-02T05:01:45;4.57;;;4.05;;
56373;SDS011;58212;47.034;7.376;2024-03-02T05:04:12;4.28;;;3.83;;
56373;SDS011;58212;47.034;7.376;2024-03-02T05:06:39;4.15;;;3.45;;
56373;SDS011;58212;47.034;7.376;2024-03-02T05:09:06;3.92;;;3.63;;
56373;SDS011;58212;47.034;7.376;2024-03-02T05:11:33;3.88;;;3.58;;
56373;SDS011;58212;47.034;7.376;2024-03-02T05:14:37;4.75;;;3.72;;
56373;SDS011;58212;47.034;7.376;2024-03-02T05:17:04;3.60;;;3.30;;
56373;SDS011;58212;47.034;7.376;2024-03-02T05:19:30;3.83;;;3.53;;
56373;SDS011;58212;47.034;7.376;2024-03-02T05:21:57;3.92;;;3.60;;
56373;SDS011;58212;47.034;7.376;2024-03-02T05:24:24;3.45;;;3.17;;
56373;SDS011;58212;47.034;7.376;2024-03-02T05:26:52;3.42;;;3.20;;
56373;SDS011;58212;47.034;7.376;2024-03-02T05:29:19;4.15;;;3.78;;
56373;SDS011;58212;47.034;7.376;2024-03-02T05:31:47;3.90;;;3.60;;
56373;SDS011;58212;47.034;7.376;2024-03-02T05:34:14;3.55;;;3.25;;
56373;SDS011;58212;47.034;7.376;2024-03-02T05:36:40;3.83;;;3.47;;
56373;SDS011;58212;47.034;7.376;2024-03-02T05:39:07;4.00;;;3.00;;
56373;SDS011;58212;47.034;7.376;2024-03-02T05:41:35;3.28;;;2.97;;
56373;SDS011;58212;47.034;7.376;2024-03-02T05:44:03;3.90;;;3.00;;
56373;SDS011;58212;47.034;7.376;2024-03-02T05:46:30;3.20;;;2.90;;
56373;SDS011;58212;47.034;7.376;2024-03-02T05:48:58;3.17;;;2.88;;
56373;SDS011;58212;47.034;7.376;2024-03-02T05:51:25;4.47;;;3.50;;
56373;SDS011;58212;47.034;7.376;2024-03-02T05:53:52;3.30;;;3.00;;
56373;SDS011;58212;47.034;7.376;2024-03-02T05:56:19;3.63;;;3.20;;
56373;SDS011;58212;47.034;7.376;2024-03-02T05:58:45;2.95;;;2.75;;
56373;SDS011;58212;47.034;7.376;2024-03-02T06:01:23;3.30;;;2.97;;
56373;SDS011;58212;47.034;7.376;2024-03-02T06:03:53;3.67;;;3.30;;
56373;SDS011;58212;47.034;7.376;2024-03-02T06:06:22;3.40;;;3.10;;
56373;SDS011;58212;47.034;7.376;2024-03-02T06:08:49;3.45;;;3.15;;
56373;SDS011;58212;47.034;7.376;2024-03-02T06:11:16;3.42;;;3.13;;
56373;SDS011;58212;47.034;7.376;2024-03-02T06:13:43;3.67;;;3.38;;
56373;SDS011;58212;47.034;7.376;2024-03-02T06:16:10;3.30;;;3.03;;
56373;SDS011;58212;47.034;7.376;2024-03-02T06:18:37;3.20;;;2.90;;
56373;SDS011;58212;47.034;7.376;2024-03-02T06:21:04;4.03;;;3.22;;
56373;SDS011;58212;47.034;7.376;2024-03-02T06:23:32;4.10;;;3.70;;
56373;SDS011;58212;47.034;7.376;2024-03-02T06:26:00;3.53;;;3.22;;
56373;SDS011;58212;47.034;7.376;2024-03-02T06:28:27;3.55;;;3.25;;
56373;SDS011;58212;47.034;7.376;2024-03-02T06:30:54;4.15;;;3.75;;
56373;SDS011;58212;47.034;7.376;2024-03-02T06:33:21;3.20;;;2.97;;
56373;SDS011;58212;47.034;7.376;2024-03-02T06:35:52;3.65;;;3.35;;
56373;SDS011;58212;47.034;7.376;2024-03-02T06:38:18;3.35;;;3.05;;
56373;SDS011;58212;47.034;7.376;2024-03-02T06:40:47;3.40;;;3.17;;
56373;SDS011;58212;47.034;7.376;2024-03-02T06:43:13;3.65;;;3.35;;
56373;SDS011;58212;47.034;7.376;2024-03-02T06:45:40;3.30;;;3.00;;
56373;SDS011;58212;47.034;7.376;2024-03-02T06:48:07;3.58;;;3.28;;
56373;SDS011;58212;47.034;7.376;2024-03-02T06:50:34;3.70;;;3.40;;
56373;SDS011;58212;47.034;7.376;2024-03-02T06:53:00;3.72;;;3.42;;
56373;SDS011;58212;47.034;7.376;2024-03-02T06:55:29;3.40;;;3.10;;
56373;SDS011;58212;47.034;7.376;2024-03-02T06:57:57;3.50;;;3.20;;
56373;SDS011;58212;47.034;7.376;2024-03-02T07:00:24;3.75;;;3.38;;
56373;SDS011;58212;47.034;7.376;2024-03-02T07:02:51;3.63;;;3.33;;
56373;SDS011;58212;47.034;7.376;2024-03-02T07:05:17;3.53;;;3.30;;
56373;SDS011;58212;47.034;7.376;2024-03-02T07:07:46;4.00;;;2.90;;
56373;SDS011;58212;47.034;7.376;2024-03-02T07:10:13;3.92;;;3.30;;
56373;SDS011;58212;47.034;7.376;2024-03-02T07:12:40;3.60;;;3.28;;
56373;SDS011;58212;47.034;7.376;2024-03-02T07:15:08;3.20;;;2.85;;
56373;SDS011;58212;47.034;7.376;2024-03-02T07:17:54;2.67;;;2.47;;
56373;SDS011;58212;47.034;7.376;2024-03-02T07:20:21;2.70;;;2.50;;
56373;SDS011;58212;47.034;7.376;2024-03-02T07:22:48;3.33;;;3.13;;
56373;SDS011;58212;47.034;7.376;2024-03-02T07:25:15;2.97;;;2.78;;
56373;SDS011;58212;47.034;7.376;2024-03-02T07:27:42;3.10;;;2.90;;
56373;SDS011;58212;47.034;7.376;2024-03-02T07:30:13;3.28;;;2.97;;
56373;SDS011;58212;47.034;7.376;2024-03-02T07:32:41;3.72;;;3.42;;
56373;SDS011;58212;47.034;7.376;2024-03-02T07:35:11;3.55;;;3.25;;
56373;SDS011;58212;47.034;7.376;2024-03-02T07:37:38;3.70;;;3.40;;
56373;SDS011;58212;47.034;7.376;2024-03-02T07:40:05;3.13;;;2.90;;
56373;SDS011;58212;47.034;7.376;2024-03-02T07:42:36;3.30;;;2.97;;
56373;SDS011;58212;47.034;7.376;2024-03-02T07:45:04;3.10;;;2.90;;
56373;SDS011;58212;47.034;7.376;2024-03-02T07:47:34;2.90;;;2.70;;
56373;SDS011;58212;47.034;7.376;2024-03-02T07:50:01;3.00;;;2.78;;
56373;SDS011;58212;47.034;7.376;2024-03-02T07:52:31;5.40;;;2.90;;
56373;SDS011;58212;47.034;7.376;2024-03-02T07:54:58;3.10;;;2.80;;
56373;SDS011;58212;47.034;7.376;2024-03-02T07:57:25;3.03;;;2.75;;
56373;SDS011;58212;47.034;7.376;2024-03-02T07:59:51;3.72;;;3.42;;
56373;SDS011;58212;47.034;7.376;2024-03-02T08:02:18;3.42;;;3.13;;
56373;SDS011;58212;47.034;7.376;2024-03-02T08:04:47;3.58;;;3.28;;
56373;SDS011;58212;47.034;7.376;2024-03-02T08:07:14;3.65;;;3.35;;
56373;SDS011;58212;47.034;7.376;2024-03-02T08:09:40;3.33;;;2.80;;
56373;SDS011;58212;47.034;7.376;2024-03-02T08:12:07;2.70;;;2.50;;
56373;SDS011;58212;47.034;7.376;2024-03-02T08:14:34;2.13;;;2.03;;
56373;SDS011;58212;47.034;7.376;2024-03-02T08:17:02;2.15;;;1.95;;
56373;SDS011;58212;47.034;7.376;2024-03-02T08:19:35;2.28;;;2.08;;
56373;SDS011;58212;47.034;7.376;2024-03-02T08:22:04;2.50;;;2.30;;
56373;SDS011;58212;47.034;7.376;2024-03-02T08:24:31;2.80;;;2.60;;
56373;SDS011;58212;47.034;7.376;2024-03-02T08:26:58;3.17;;;2.10;;
56373;SDS011;58212;47.034;7.376;2024-03-02T08:29:25;2.03;;;1.80;;
56373;SDS011;58212;47.034;7.376;2024-03-02T08:31:52;3.22;;;2.92;;
56373;SDS011;58212;47.034;7.376;2024-03-02T08:34:19;3.55;;;3.03;;
56373;SDS011;58212;47.034;7.376;2024-03-02T08:36:46;3.10;;;2.83;;
56373;SDS011;58212;47.034;7.376;2024-03-02T08:39:14;3.10;;;2.80;;
56373;SDS011;58212;47.034;7.376;2024-03-02T08:41:41;2.70;;;2.50;;
56373;SDS011;58212;47.034;7.376;2024-03-02T08:44:09;3.00;;;2.80;;
56373;SDS011;58212;47.034;7.376;2024-03-02T08:46:36;3.15;;;2.95;;
56373;SDS011;58212;47.034;7.376;2024-03-02T08:49:03;3.25;;;2.90;;
56373;SDS011;58212;47.034;7.376;2024-03-02T08:51:30;3.20;;;2.90;;
56373;SDS011;58212;47.034;7.376;2024-03-02T08:53:57;3.55;;;2.75;;
56373;SDS011;58212;47.034;7.376;2024-03-02T08:56:25;3.60;;;2.72;;
56373;SDS011;58212;47.034;7.376;2024-03-02T08:58:52;2.70;;;2.50;;
56373;SDS011;58212;47.034;7.376;2024-03-02T09:01:19;3.08;;;2.78;;
56373;SDS011;58212;47.034;7.376;2024-03-02T09:03:46;3.13;;;2.92;;
56373;SDS011;58212;47.034;7.376;2024-03-02T09:06:14;3.38;;;3.05;;
56373;SDS011;58212;47.034;7.376;2024-03-02T09:08:42;3.97;;;3.42;;
56373;SDS011;58212;47.034;7.376;2024-03-02T09:11:09;4.38;;;3.70;;
56373;SDS011;58212;47.034;7.376;2024-03-02T09:13:38;3.05;;;2.85;;
56373;SDS011;58212;47.034;7.376;2024-03-02T09:16:06;2.60;;;2.40;;
56373;SDS011;58212;47.034;7.376;2024-03-02T09:18:36;2.60;;;2.40;;
56373;SDS011;58212;47.034;7.376;2024-03-02T09:21:03;2.55;;;2.35;;
56373;SDS011;58212;47.034;7.376;2024-03-02T09:23:30;3.00;;;2.55;;
56373;SDS011;58212;47.034;7.376;2024-03-02T09:25:57;2.70;;;2.20;;
56373;SDS011;58212;47.034;7.376;2024-03-02T09:28:24;3.08;;;2.10;;
56373;SDS011;58212;47.034;7.376;2024-03-02T09:30:52;2.33;;;1.95;;
56373;SDS011;58212;47.034;7.376;2024-03-02T09:33:19;2.45;;;2.00;;
56373;SDS011;58212;47.034;7.376;2024-03-02T09:35:46;2.25;;;2.05;;
56373;SDS011;58212;47.034;7.376;2024-03-02T09:38:13;1.77;;;1.67;;
56373;SDS011;58212;47.034;7.376;2024-03-02T09:40:41;3.58;;;1.60;;
56373;SDS011;58212;47.034;7.376;2024-03-02T09:43:08;2.20;;;1.90;;
56373;SDS011;58212;47.034;7.376;2024-03-02T09:45:35;2.20;;;2.00;;
56373;SDS011;58212;47.034;7.376;2024-03-02T09:48:04;1.80;;;1.70;;
56373;SDS011;58212;47.034;7.376;2024-03-02T09:50:32;2.10;;;2.00;;
56373;SDS011;58212;47.034;7.376;2024-03-02T09:52:58;2.60;;;2.20;;
56373;SDS011;58212;47.034;7.376;2024-03-02T09:55:25;2.50;;;2.30;;
56373;SDS011;58212;47.034;7.376;2024-03-02T09:57:53;2.35;;;2.15;;
56373;SDS011;58212;47.034;7.376;2024-03-02T10:00:20;2.60;;;2.40;;
56373;SDS011;58212;47.034;7.376;2024-03-02T10:02:46;2.78;;;2.47;;
56373;SDS011;58212;47.034;7.376;2024-03-02T10:05:24;5.65;;;2.63;;
56373;SDS011;58212;47.034;7.376;2024-03-02T10:07:59;3.05;;;2.78;;
56373;SDS011;58212;47.034;7.376;2024-03-02T10:10:34;3.03;;;2.70;;
56373;SDS011;58212;47.034;7.376;2024-03-02T10:13:05;2.72;;;2.53;;
56373;SDS011;58212;47.034;7.376;2024-03-02T10:15:34;4.05;;;2.50;;
56373;SDS011;58212;47.034;7.376;2024-03-02T10:18:02;2.97;;;2.72;;
56373;SDS011;58212;47.034;7.376;2024-03-02T10:20:30;3.22;;;2.90;;
56373;SDS011;58212;47.034;7.376;2024-03-02T10:23:09;2.97;;;2.78;;
56373;SDS011;58212;47.034;7.376;2024-03-02T10:25:37;3.08;;;2.78;;
56373;SDS011;58212;47.034;7.376;2024-03-02T10:28:04;2.85;;;2.60;;
56373;SDS011;58212;47.034;7.376;2024-03-02T10:30:31;3.03;;;2.72;;
56373;SDS011;58212;47.034;7.376;2024-03-02T10:32:58;3.10;;;2.80;;
56373;SDS011;58212;47.034;7.376;2024-03-02T10:35:27;2.78;;;2.25;;
56373;SDS011;58212;47.034;7.376;2024-03-02T10:37:55;3.10;;;2.80;;
56373;SDS011;58212;47.034;7.376;2024-03-02T10:40:22;2.75;;;2.53;;
56373;SDS011;58212;47.034;7.376;2024-03-02T10:42:49;2.92;;;2.67;;
56373;SDS011;58212;47.034;7.376;2024-03-02T10:45:17;2.90;;;2.60;;
56373;SDS011;58212;47.034;7.376;2024-03-02T10:47:45;2.80;;;2.60;;
56373;SDS011;58212;47.034;7.376;2024-03-02T10:50:13;3.20;;;2.90;;
56373;SDS011;58212;47.034;7.376;2024-03-02T10:52:40;3.60;;;2.95;;
56373;SDS011;58212;47.034;7.376;2024-03-02T10:55:09;3.17;;;2.95;;
56373;SDS011;58212;47.034;7.376;2024-03-02T10:57:41;4.13;;;2.80;;
56373;SDS011;58212;47.034;7.376;2024-03-02T11:00:11;3.47;;;3.10;;
56373;SDS011;58212;47.034;7.376;2024-03-02T11:02:42;3.40;;;2.60;;
56373;SDS011;58212;47.034;7.376;2024-03-02T11:05:18;2.95;;;2.72;;
56373;SDS011;58212;47.034;7.376;2024-03-02T11:07:53;2.78;;;2.58;;
56373;SDS011;58212;47.034;7.376;2024-03-02T11:10:25;3.65;;;2.42;;
56373;SDS011;58212;47.034;7.376;2024-03-02T11:12:56;3.00;;;2.80;;
56373;SDS011;58212;47.034;7.376;2024-03-02T11:15:27;2.83;;;2.40;;
56373;SDS011;58212;47.034;7.376;2024-03-02T11:17:54;3.05;;;2.60;;
56373;SDS011;58212;47.034;7.376;2024-03-02T11:20:22;2.50;;;2.30;;
56373;SDS011;58212;47.034;7.376;2024-03-02T11:22:50;2.85;;;2.65;;
56373;SDS011;58212;47.034;7.376;2024-03-02T11:25:23;5.68;;;2.83;;
56373;SDS011;58212;47.034;7.376;2024-03-02T11:28:02;3.03;;;2.45;;
56373;SDS011;58212;47.034;7.376;2024-03-02T11:33:15;6.30;;;5.20;;
56373;SDS011;58212;47.034;7.376;2024-03-02T11:35:50;2.95;;;2.58;;
56373;SDS011;58212;47.034;7.376;2024-03-02T11:38:17;2.60;;;2.28;;
56373;SDS011;58212;47.034;7.376;2024-03-02T11:40:45;2.55;;;2.33;;
56373;SDS011;58212;47.034;7.376;2024-03-02T11:43:13;3.33;;;2.40;;
56373;SDS011;58212;47.034;7.376;2024-03-02T11:45:41;2.60;;;2.40;;
56373;SDS011;58212;47.034;7.376;2024-03-02T11:48:10;3.20;;;2.90;;
56373;SDS011;58212;47.034;7.376;2024-03-02T11:50:40;2.70;;;2.47;;
56373;SDS011;58212;47.034;7.376;2024-03-02T11:53:09;4.35;;;3.08;;
56373;SDS011;58212;47.034;7.376;2024-03-02T11:55:38;2.85;;;2.65;;
56373;SDS011;58212;47.034;7.376;2024-03-02T11:58:07;2.78;;;2.58;;
56373;SDS011;58212;47.034;7.376;2024-03-02T12:00:35;2.97;;;2.78;;
56373;SDS011;58212;47.034;7.376;2024-03-02T12:03:02;4.00;;;2.95;;
56373;SDS011;58212;47.034;7.376;2024-03-02T12:05:32;3.40;;;2.63;;
56373;SDS011;58212;47.034;7.376;2024-03-02T12:08:00;3.15;;;2.42;;
56373;SDS011;58212;47.034;7.376;2024-03-02T12:10:28;2.83;;;2.63;;
56373;SDS011;58212;47.034;7.376;2024-03-02T12:12:56;2.78;;;2.50;;
56373;SDS011;58212;47.034;7.376;2024-03-02T12:15:25;2.72;;;2.40;;
56373;SDS011;58212;47.034;7.376;2024-03-02T12:17:54;2.78;;;2.42;;
56373;SDS011;58212;47.034;7.376;2024-03-02T12:20:21;2.47;;;2.08;;
56373;SDS011;58212;47.034;7.376;2024-03-02T12:22:50;3.90;;;2.42;;
56373;SDS011;58212;47.034;7.376;2024-03-02T12:25:18;2.60;;;2.40;;
56373;SDS011;58212;47.034;7.376;2024-03-02T12:27:46;2.42;;;2.22;;
56373;SDS011;58212;47.034;7.376;2024-03-02T12:30:14;2.58;;;2.38;;
56373;SDS011;58212;47.034;7.376;2024-03-02T12:32:43;2.83;;;2.63;;
56373;SDS011;58212;47.034;7.376;2024-03-02T12:35:11;2.60;;;2.40;;
56373;SDS011;58212;47.034;7.376;2024-03-02T12:37:43;4.07;;;2.90;;
56373;SDS011;58212;47.034;7.376;2024-03-02T12:40:11;2.88;;;2.67;;
56373;SDS011;58212;47.034;7.376;2024-03-02T12:42:38;2.67;;;2.47;;
56373;SDS011;58212;47.034;7.376;2024-03-02T12:45:07;2.80;;;2.60;;
56373;SDS011;58212;47.034;7.376;2024-03-02T12:47:34;2.75;;;2.55;;
56373;SDS011;58212;47.034;7.376;2024-03-02T12:50:03;2.88;;;2.67;;
56373;SDS011;58212;47.034;7.376;2024-03-02T12:52:30;3.40;;;3.10;;
56373;SDS011;58212;47.034;7.376;2024-03-02T12:54:59;2.85;;;2.65;;
56373;SDS011;58212;47.034;7.376;2024-03-02T12:57:28;3.05;;;2.75;;
56373;SDS011;58212;47.034;7.376;2024-03-02T12:59:57;3.40;;;3.10;;
56373;SDS011;58212;47.034;7.376;2024-03-02T13:02:27;3.85;;;2.90;;
56373;SDS011;58212;47.034;7.376;2024-03-02T13:04:56;3.55;;;3.25;;
56373;SDS011;58212;47.034;7.376;2024-03-02T13:07:25;3.80;;;3.20;;
56373;SDS011;58212;47.034;7.376;2024-03-02T13:09:53;3.88;;;3.08;;
56373;SDS011;58212;47.034;7.376;2024-03-02T13:12:21;3.90;;;3.55;;
56373;SDS011;58212;47.034;7.376;2024-03-02T13:14:49;3.42;;;3.20;;
56373;SDS011;58212;47.034;7.376;2024-03-02T13:17:17;3.92;;;3.30;;
56373;SDS011;58212;47.034;7.376;2024-03-02T13:19:50;3.78;;;3.47;;
56373;SDS011;58212;47.034;7.376;2024-03-02T13:22:18;3.58;;;3.28;;
56373;SDS011;58212;47.034;7.376;2024-03-02T13:24:46;3.70;;;3.40;;
56373;SDS011;58212;47.034;7.376;2024-03-02T13:27:13;3.20;;;2.90;;
56373;SDS011;58212;47.034;7.376;2024-03-02T13:29:41;3.10;;;2.80;;
56373;SDS011;58212;47.034;7.376;2024-03-02T13:32:08;3.30;;;2.80;;
56373;SDS011;58212;47.034;7.376;2024-03-02T13:34:35;3.97;;;2.90;;
56373;SDS011;58212;47.034;7.376;2024-03-02T13:37:02;2.60;;;2.10;;
56373;SDS011;58212;47.034;7.376;2024-03-02T13:39:30;2.60;;;2.40;;
56373;SDS011;58212;47.034;7.376;2024-03-02T13:41:59;2.00;;;1.80;;
56373;SDS011;58212;47.034;7.376;2024-03-02T13:44:30;2.60;;;1.80;;
56373;SDS011;58212;47.034;7.376;2024-03-02T13:46:59;2.67;;;2.00;;
56373;SDS011;58212;47.034;7.376;2024-03-02T13:49:26;3.08;;;2.58;;
56373;SDS011;58212;47.034;7.376;2024-03-02T13:51:58;2.42;;;1.80;;
56373;SDS011;58212;47.034;7.376;2024-03-02T13:54:28;2.35;;;2.15;;
56373;SDS011;58212;47.034;7.376;2024-03-02T13:56:55;2.72;;;2.20;;
56373;SDS011;58212;47.034;7.376;2024-03-02T13:59:24;2.78;;;2.30;;
56373;SDS011;58212;47.034;7.376;2024-03-02T14:01:51;3.33;;;2.33;;
56373;SDS011;58212;47.034;7.376;2024-03-02T14:04:18;2.10;;;1.90;;
56373;SDS011;58212;47.034;7.376;2024-03-02T14:06:45;2.38;;;2.17;;
56373;SDS011;58212;47.034;7.376;2024-03-02T14:09:12;2.20;;;2.00;;
56373;SDS011;58212;47.034;7.376;2024-03-02T14:11:38;2.40;;;2.20;;
56373;SDS011;58212;47.034;7.376;2024-03-02T14:14:05;2.70;;;2.50;;
56373;SDS011;58212;47.034;7.376;2024-03-02T14:16:33;2.60;;;2.40;;
56373;SDS011;58212;47.034;7.376;2024-03-02T14:19:01;3.35;;;1.98;;
56373;SDS011;58212;47.034;7.376;2024-03-02T14:21:29;2.35;;;2.15;;
56373;SDS011;58212;47.034;7.376;2024-03-02T14:23:56;2.20;;;2.00;;
56373;SDS011;58212;47.034;7.376;2024-03-02T14:26:23;2.30;;;2.10;;
56373;SDS011;58212;47.034;7.376;2024-03-02T14:28:49;2.25;;;2.05;;
56373;SDS011;58212;47.034;7.376;2024-03-02T14:31:17;3.42;;;2.40;;
56373;SDS011;58212;47.034;7.376;2024-03-02T14:33:46;2.67;;;2.30;;
56373;SDS011;58212;47.034;7.376;2024-03-02T14:36:13;2.60;;;2.40;;
56373;SDS011;58212;47.034;7.376;2024-03-02T14:38:41;3.83;;;2.50;;
56373;SDS011;58212;47.034;7.376;2024-03-02T14:41:08;3.03;;;2.25;;
56373;SDS011;58212;47.034;7.376;2024-03-02T14:43:36;2.42;;;2.22;;
56373;SDS011;58212;47.034;7.376;2024-03-02T14:46:03;2.65;;;2.45;;
56373;SDS011;58212;47.034;7.376;2024-03-02T14:48:30;2.45;;;2.25;;
56373;SDS011;58212;47.034;7.376;2024-03-02T14:50:58;4.28;;;2.33;;
56373;SDS011;58212;47.034;7.376;2024-03-02T14:53:25;2.88;;;2.58;;
56373;SDS011;58212;47.034;7.376;2024-03-02T14:55:52;2.67;;;2.47;;
56373;SDS011;58212;47.034;7.376;2024-03-02T14:58:19;3.25;;;2.65;;